Time;durP1;ratioP1;P1;durP2;ratioP2;P2;SDS_P1;SDS_P2;PMS_P1;PMS_P2;Temp;Humidity;BMP_temperature;BMP_pressure;BME280_temperature;BME280_humidity;BME280_pressure;Samples;Min_cycle;Max_cycle;Signal;HPM_P1;HPM_P2
2023/12/26 00:02:02;;;;;;;7.72;1.88;;;;;;;12.52;59.13;100062.22;5070995;28;20385;-37
2023/12/26 00:04:27;;;;;;;4.10;1.75;;;;;;;12.49;58.94;100058.03;5069691;28;20646;-38
2023/12/26 00:06:52;;;;;;;7.05;2.38;;;;;;;12.52;58.42;100041.13;5073502;28;20028;-38
2023/12/26 00:09:18;;;;;;;7.10;1.98;;;;;;;12.56;58.72;100053.13;5074202;28;20549;-38
2023/12/26 00:11:46;;;;;;;9.88;2.17;;;;;;;12.56;59.21;100055.78;5070881;28;20036;-37
2023/12/26 00:14:21;;;;;;;6.13;1.90;;;;;;;12.54;59.30;100052.41;5073029;28;20080;-36
2023/12/26 00:16:46;;;;;;;5.80;2.08;;;;;;;12.46;60.04;100038.00;5075464;28;20038;-37
2023/12/26 00:19:12;;;;;;;3.10;1.70;;;;;;;12.31;61.54;100024.19;5076810;28;20036;-37
2023/12/26 00:21:38;;;;;;;4.90;1.90;;;;;;;12.08;63.39;100028.56;5078675;28;20028;-37
2023/12/26 00:24:05;;;;;;;5.70;2.10;;;;;;;11.97;64.71;100017.97;5079837;28;20024;-38
2023/12/26 00:26:30;;;;;;;6.88;2.60;;;;;;;11.93;65.40;100005.97;5075157;28;20027;-37
2023/12/26 00:28:55;;;;;;;6.97;2.35;;;;;;;11.77;66.47;100001.84;5073871;28;20032;-37
2023/12/26 00:31:21;;;;;;;3.17;2.15;;;;;;;11.86;66.18;99997.69;5073116;28;20426;-37
2023/12/26 00:33:48;;;;;;;7.00;2.50;;;;;;;11.80;66.99;99993.72;5077580;28;20089;-38
2023/12/26 00:36:17;;;;;;;5.82;1.98;;;;;;;11.94;66.67;99994.47;5067607;28;20046;-37
2023/12/26 00:38:44;;;;;;;7.43;2.30;;;;;;;11.99;65.79;99987.91;5076646;28;20024;-36
2023/12/26 00:41:09;;;;;;;4.38;2.30;;;;;;;11.95;66.09;99986.44;5074237;28;20060;-37
2023/12/26 00:43:35;;;;;;;4.97;2.40;;;;;;;12.04;65.65;99977.03;5070736;28;20155;-37
2023/12/26 00:46:00;;;;;;;4.72;2.42;;;;;;;11.94;66.72;99978.66;5069159;28;20090;-37
2023/12/26 00:48:25;;;;;;;5.72;2.50;;;;;;;11.98;66.27;99980.97;5068935;28;20037;-36
2023/12/26 00:50:51;;;;;;;4.80;2.60;;;;;;;12.12;65.99;99972.00;5078064;28;20093;-37
2023/12/26 00:53:16;;;;;;;7.55;2.40;;;;;;;12.16;65.30;99968.19;5078857;28;20115;-37
2023/12/26 00:55:42;;;;;;;7.82;2.60;;;;;;;12.14;65.89;99970.09;5077899;28;20040;-37
2023/12/26 00:58:07;;;;;;;11.02;2.67;;;;;;;12.16;65.89;99968.19;5071244;28;20056;-37
2023/12/26 01:00:32;;;;;;;9.52;2.72;;;;;;;12.20;65.64;99966.97;5070605;28;20573;-37
2023/12/26 01:02:58;;;;;;;2.53;1.45;;;;;;;12.19;66.05;99960.03;5071673;28;20506;-37
2023/12/26 01:05:23;;;;;;;7.78;2.08;;;;;;;12.18;66.05;99962.78;5072543;28;20066;-38
2023/12/26 01:07:48;;;;;;;4.63;2.15;;;;;;;12.19;66.36;99967.09;5078073;28;20111;-38
2023/12/26 01:10:14;;;;;;;3.20;1.80;;;;;;;12.25;65.62;99956.06;5067230;28;20488;-37
2023/12/26 01:12:39;;;;;;;3.72;2.13;;;;;;;12.20;66.36;99963.53;5074299;28;20082;-38
2023/12/26 01:15:05;;;;;;;3.72;2.00;;;;;;;12.06;67.23;99955.81;5074031;28;20582;-38
2023/12/26 01:17:30;;;;;;;2.70;1.48;;;;;;;11.97;67.74;99959.97;5079572;28;20031;-38
2023/12/26 01:19:56;;;;;;;8.27;1.40;;;;;;;12.07;67.93;99953.06;5076310;28;20032;-38
2023/12/26 01:22:22;;;;;;;6.00;1.90;;;;;;;12.00;68.06;99946.59;5074684;28;20034;-38
2023/12/26 01:24:50;;;;;;;1.92;1.00;;;;;;;12.16;67.77;99951.50;5076831;28;20039;-38
2023/12/26 01:27:16;;;;;;;6.53;1.63;;;;;;;12.12;67.59;99945.66;5077234;28;20056;-37
2023/12/26 01:29:41;;;;;;;3.03;1.17;;;;;;;12.06;67.65;99935.56;5077256;28;20119;-38
2023/12/26 01:32:07;;;;;;;6.20;1.35;;;;;;;12.10;67.81;99933.53;5076451;28;20052;-38
2023/12/26 01:34:32;;;;;;;4.15;1.25;;;;;;;12.05;68.67;99918.06;5079745;28;20024;-37
2023/12/26 01:36:58;;;;;;;4.13;1.45;;;;;;;12.16;67.86;99920.72;5079066;28;20111;-37
2023/12/26 01:39:25;;;;;;;4.88;1.70;;;;;;;12.06;68.07;99913.63;5073145;28;20032;-37
2023/12/26 01:41:50;;;;;;;7.55;1.75;;;;;;;12.16;67.97;99918.09;5074078;28;20036;-38
2023/12/26 01:44:16;;;;;;;3.47;1.45;;;;;;;12.25;67.38;99915.69;5076079;28;20036;-38
2023/12/26 01:46:41;;;;;;;2.60;1.55;;;;;;;12.19;67.78;99914.34;5073198;28;20031;-37
2023/12/26 01:49:07;;;;;;;4.05;1.45;;;;;;;12.13;68.20;99913.03;5072085;28;20043;-37
2023/12/26 01:51:33;;;;;;;5.63;1.77;;;;;;;12.09;68.28;99908.97;5076108;28;20024;-37
2023/12/26 01:53:59;;;;;;;4.10;1.45;;;;;;;12.10;68.19;99899.25;5078598;28;20498;-38
2023/12/26 01:56:26;;;;;;;7.45;1.75;;;;;;;12.10;68.77;99888.72;5074267;28;20085;-37
2023/12/26 01:58:52;;;;;;;6.72;1.67;;;;;;;12.18;68.13;99878.41;5070338;28;20051;-37
2023/12/26 02:01:18;;;;;;;3.35;1.60;;;;;;;12.09;68.62;99877.31;5073927;28;20032;-37
2023/12/26 02:03:44;;;;;;;5.32;1.95;;;;;;;12.08;68.57;99874.81;5078775;28;20477;-38
2023/12/26 02:06:11;;;;;;;4.40;1.65;;;;;;;12.13;68.49;99855.03;5075382;28;20030;-37
2023/12/26 02:08:37;;;;;;;2.72;1.63;;;;;;;12.08;68.72;99851.91;5078695;28;20040;-38
2023/12/26 02:11:02;;;;;;;4.03;2.03;;;;;;;12.23;68.24;99852.50;5071294;28;20055;-37
2023/12/26 02:13:29;;;;;;;7.57;1.85;;;;;;;12.06;68.51;99850.34;5074318;28;20485;-37
2023/12/26 02:15:58;;;;;;;4.82;1.77;;;;;;;12.18;68.61;99844.94;5078087;28;20032;-37
2023/12/26 02:18:25;;;;;;;4.43;1.80;;;;;;;12.30;68.04;99842.31;5074515;28;20412;-38
2023/12/26 02:20:50;;;;;;;4.32;1.55;;;;;;;12.35;67.83;99834.84;5074397;28;20035;-38
2023/12/26 02:23:15;;;;;;;7.47;3.03;;;;;;;12.17;68.56;99827.47;5072342;28;20448;-37
2023/12/26 02:25:41;;;;;;;4.20;2.42;;;;;;;12.16;68.04;99830.19;5072935;28;20118;-37
2023/12/26 02:28:08;;;;;;;6.53;1.63;;;;;;;12.25;68.50;99831.28;5075813;28;20024;-38
2023/12/26 02:30:35;;;;;;;4.82;1.60;;;;;;;12.21;68.31;99820.13;5087891;28;20051;-37
2023/12/26 02:33:02;;;;;;;2.63;1.25;;;;;;;12.23;68.48;99820.84;5071436;28;21330;-37
2023/12/26 02:35:28;;;;;;;4.15;1.60;;;;;;;12.19;68.84;99814.16;5072758;28;20039;-37
2023/12/26 02:37:54;;;;;;;3.22;1.40;;;;;;;12.25;68.80;99818.09;5076681;28;20085;-38
2023/12/26 02:40:19;;;;;;;3.35;1.38;;;;;;;12.24;68.70;99816.41;5080364;28;20051;-37
2023/12/26 02:42:45;;;;;;;3.72;2.15;;;;;;;12.04;69.36;99806.50;5074342;28;20139;-37
2023/12/26 02:45:10;;;;;;;2.05;1.10;;;;;;;12.16;69.14;99799.41;5072528;28;20035;-38
2023/12/26 02:47:36;;;;;;;3.90;1.35;;;;;;;12.24;68.82;99811.13;5076041;28;20071;-37
2023/12/26 02:50:01;;;;;;;2.85;1.05;;;;;;;12.32;68.64;99806.09;5072051;28;20119;-37
2023/12/26 02:52:26;;;;;;;2.65;1.30;;;;;;;12.31;68.67;99812.34;5069055;28;20504;-37
2023/12/26 02:54:52;;;;;;;1.70;0.98;;;;;;;12.26;69.16;99803.94;5074448;28;20035;-37
2023/12/26 02:57:17;;;;;;;4.95;1.48;;;;;;;12.34;68.51;99799.72;5075979;28;20039;-38
2023/12/26 02:59:42;;;;;;;1.88;1.00;;;;;;;12.32;68.88;99798.19;5073753;28;20424;-37
2023/12/26 03:02:08;;;;;;;1.85;1.10;;;;;;;12.27;68.99;99805.63;5071213;28;20039;-38
2023/12/26 03:04:34;;;;;;;3.90;1.40;;;;;;;12.37;68.73;99798.63;5072056;28;20021;-37
2023/12/26 03:07:00;;;;;;;3.80;1.23;;;;;;;12.30;68.81;99794.81;5066593;28;20115;-36
2023/12/26 03:09:25;;;;;;;1.50;0.80;;;;;;;12.40;68.79;99793.13;5071964;28;20502;-38
2023/12/26 03:11:50;;;;;;;4.43;1.20;;;;;;;12.46;68.39;99790.00;5074733;28;20052;-38
2023/12/26 03:14:16;;;;;;;1.98;1.10;;;;;;;12.51;68.05;99786.97;5073856;28;20047;-38
2023/12/26 03:16:41;;;;;;;3.63;1.00;;;;;;;12.42;68.35;99782.44;5069186;28;20024;-37
2023/12/26 03:19:06;;;;;;;1.08;0.60;;;;;;;12.45;68.19;99780.41;5073724;28;20035;-37
2023/12/26 03:21:32;;;;;;;3.33;1.15;;;;;;;12.46;68.05;99779.44;5065695;28;20892;-37
2023/12/26 03:23:57;;;;;;;3.38;1.20;;;;;;;12.52;68.21;99779.88;5066660;28;20082;-37
2023/12/26 03:26:22;;;;;;;5.32;1.05;;;;;;;12.49;68.31;99779.16;5075152;28;20032;-38
2023/12/26 03:28:48;;;;;;;3.83;1.02;;;;;;;12.61;67.45;99776.53;5077740;28;20082;-38
2023/12/26 03:31:13;;;;;;;1.85;0.98;;;;;;;12.44;68.30;99768.16;5071886;28;20032;-36
2023/12/26 03:33:39;;;;;;;3.80;1.02;;;;;;;12.43;68.16;99777.06;5068249;28;20036;-38
2023/12/26 03:36:05;;;;;;;3.03;1.40;;;;;;;12.46;67.67;99775.94;5070492;28;20029;-37
2023/12/26 03:38:30;;;;;;;2.47;1.10;;;;;;;12.45;68.23;99777.78;5065736;28;20024;-38
2023/12/26 03:40:56;;;;;;;3.78;1.25;;;;;;;12.44;68.41;99770.81;5067706;28;20125;-38
2023/12/26 03:43:22;;;;;;;1.90;0.90;;;;;;;12.48;68.35;99774.84;5068615;28;20035;-38
2023/12/26 03:45:48;;;;;;;2.75;1.13;;;;;;;12.42;68.58;99764.81;5066686;28;20028;-38
2023/12/26 03:48:14;;;;;;;3.50;1.02;;;;;;;12.40;68.51;99758.81;5067060;28;20063;-38
2023/12/26 03:50:39;;;;;;;3.50;0.98;;;;;;;12.49;68.13;99752.78;5070871;28;20036;-38
2023/12/26 03:53:05;;;;;;;5.88;1.10;;;;;;;12.37;68.39;99758.25;5080965;28;20123;-37
2023/12/26 03:55:30;;;;;;;1.17;0.68;;;;;;;12.38;68.71;99755.47;5074453;28;20070;-38
2023/12/26 03:57:55;;;;;;;2.03;0.90;;;;;;;12.34;68.69;99759.31;5079677;28;20055;-38
2023/12/26 04:00:21;;;;;;;2.88;0.95;;;;;;;12.37;68.96;99756.44;5074509;28;20078;-38
2023/12/26 04:02:47;;;;;;;2.28;0.60;;;;;;;12.41;68.94;99755.22;5076537;28;20157;-37
2023/12/26 04:05:13;;;;;;;3.25;1.15;;;;;;;12.43;68.57;99752.44;5077943;28;20108;-38
2023/12/26 04:07:38;;;;;;;1.33;0.60;;;;;;;12.31;69.37;99755.13;5071926;28;20168;-37
2023/12/26 04:10:04;;;;;;;2.22;0.80;;;;;;;12.43;68.97;99741.91;5077023;28;20461;-37
2023/12/26 04:12:31;;;;;;;0.70;0.50;;;;;;;12.34;69.32;99743.47;5075699;28;20031;-38
2023/12/26 04:14:57;;;;;;;1.85;0.63;;;;;;;12.40;69.41;99737.72;5075364;28;20033;-38
2023/12/26 04:17:22;;;;;;;1.33;0.68;;;;;;;12.29;69.56;99735.13;5073296;28;20028;-37
2023/12/26 04:19:48;;;;;;;1.77;0.70;;;;;;;12.41;69.34;99734.13;5080850;28;20024;-37
2023/12/26 04:22:13;;;;;;;2.03;0.82;;;;;;;12.42;69.36;99729.66;5082833;28;20097;-37
2023/12/26 04:24:38;;;;;;;3.65;0.50;;;;;;;12.37;69.62;99726.59;5079454;28;20040;-38
2023/12/26 04:27:05;;;;;;;1.10;0.75;;;;;;;12.52;69.14;99722.69;5081600;28;20651;-37
2023/12/26 04:29:31;;;;;;;0.98;0.45;;;;;;;12.59;68.77;99720.38;5077724;28;20067;-37
2023/12/26 04:31:56;;;;;;;0.60;0.40;;;;;;;12.46;68.90;99718.75;5079082;28;20555;-38
2023/12/26 04:34:22;;;;;;;1.00;0.40;;;;;;;12.67;68.53;99719.75;5078212;28;20145;-37
2023/12/26 04:36:47;;;;;;;1.42;0.50;;;;;;;12.53;68.99;99715.59;5078220;28;20149;-38
2023/12/26 04:39:13;;;;;;;2.05;0.95;;;;;;;12.64;68.44;99718.19;5082234;28;20032;-37
2023/12/26 04:41:38;;;;;;;3.05;0.80;;;;;;;12.65;68.88;99709.31;5076714;28;20043;-37
2023/12/26 04:44:04;;;;;;;0.30;0.20;;;;;;;12.62;68.54;99710.41;5078232;28;20039;-38
2023/12/26 04:46:29;;;;;;;0.52;0.30;;;;;;;12.46;68.74;99712.63;5075113;28;20087;-38
2023/12/26 04:48:55;;;;;;;1.15;0.38;;;;;;;12.52;68.92;99709.50;5073200;28;20484;-38
2023/12/26 04:51:20;;;;;;;0.20;0.20;;;;;;;12.46;69.37;99710.84;5083451;28;20039;-38
2023/12/26 04:53:46;;;;;;;0.82;0.20;;;;;;;12.40;69.46;99716.63;5075663;28;20458;-38
2023/12/26 04:56:19;;;;;;;0.45;0.40;;;;;;;12.45;69.17;99719.72;5079463;28;20036;-37
2023/12/26 04:58:47;;;;;;;0.20;0.20;;;;;;;12.41;69.19;99726.19;5077009;28;20048;-38
2023/12/26 05:01:12;;;;;;;0.20;0.15;;;;;;;12.47;68.83;99723.06;5075815;28;20107;-37
2023/12/26 05:03:38;;;;;;;0.55;0.28;;;;;;;12.33;69.44;99728.63;5077522;28;20042;-37
2023/12/26 05:06:04;;;;;;;2.17;0.28;;;;;;;12.42;69.53;99730.53;5079508;28;20345;-38
2023/12/26 05:08:30;;;;;;;0.32;0.20;;;;;;;12.40;69.73;99734.25;5077837;28;20039;-38
2023/12/26 05:10:56;;;;;;;0.52;0.30;;;;;;;12.38;70.05;99728.25;5075409;28;20196;-38
2023/12/26 05:13:21;;;;;;;0.28;0.28;;;;;;;12.36;69.97;99736.28;5076802;28;20645;-37
2023/12/26 05:15:46;;;;;;;0.20;0.20;;;;;;;12.40;69.73;99734.25;5078805;28;20123;-37
2023/12/26 05:18:12;;;;;;;0.70;0.30;;;;;;;12.35;69.98;99735.47;5081975;28;20421;-38
2023/12/26 05:20:38;;;;;;;0.40;0.20;;;;;;;12.41;70.27;99736.75;5077096;28;20034;-38
2023/12/26 05:23:04;;;;;;;0.63;0.15;;;;;;;12.36;70.00;99738.91;5077686;28;20029;-37
2023/12/26 05:25:29;;;;;;;1.02;0.40;;;;;;;12.25;70.80;99742.41;5081937;28;20035;-38
2023/12/26 05:27:54;;;;;;;0.38;0.38;;;;;;;12.12;70.97;99744.38;5079461;28;20032;-37
2023/12/26 05:30:20;;;;;;;0.15;0.15;;;;;;;12.13;71.59;99751.31;5074199;28;20024;-37
2023/12/26 05:32:45;;;;;;;0.35;0.20;;;;;;;12.27;71.18;99748.41;5077129;28;20111;-37
2023/12/26 05:35:11;;;;;;;0.30;0.20;;;;;;;11.87;71.82;99749.78;5078310;28;20035;-37
2023/12/26 05:37:36;;;;;;;0.20;0.20;;;;;;;12.11;71.58;99743.56;5075764;28;20050;-37
2023/12/26 05:40:01;;;;;;;0.20;0.20;;;;;;;12.27;70.80;99743.13;5079234;28;20032;-37
2023/12/26 05:42:27;;;;;;;0.77;0.20;;;;;;;12.16;70.96;99735.25;5073363;28;20070;-37
2023/12/26 05:44:52;;;;;;;1.00;0.30;;;;;;;12.31;71.11;99741.13;5078126;28;20052;-37
2023/12/26 05:47:19;;;;;;;1.02;0.22;;;;;;;12.19;71.23;99741.13;5080971;28;20024;-37
2023/12/26 05:49:45;;;;;;;0.15;0.15;;;;;;;12.29;71.10;99745.66;5074522;28;20052;-37
2023/12/26 05:52:10;;;;;;;0.10;0.10;;;;;;;12.40;70.61;99763.28;5076383;28;20035;-37
2023/12/26 05:54:35;;;;;;;0.43;0.20;;;;;;;12.35;70.18;99767.13;5075251;28;20043;-37
2023/12/26 05:57:01;;;;;;;0.20;0.20;;;;;;;12.27;70.49;99763.41;5076822;28;20032;-37
2023/12/26 05:59:26;;;;;;;0.10;0.10;;;;;;;11.76;71.80;99762.97;5078543;28;20035;-37
2023/12/26 06:01:51;;;;;;;0.20;0.20;;;;;;;12.28;70.01;99762.47;5074105;28;20135;-37
2023/12/26 06:04:17;;;;;;;0.45;0.25;;;;;;;12.33;69.95;99774.31;5081716;28;20059;-37
2023/12/26 06:06:42;;;;;;;1.33;0.20;;;;;;;12.24;70.08;99769.78;5079170;28;21260;-37
2023/12/26 06:09:07;;;;;;;2.15;0.40;;;;;;;12.23;70.01;99780.44;5077722;28;20028;-37
2023/12/26 06:11:33;;;;;;;0.75;0.22;;;;;;;12.14;70.45;99764.41;5078623;28;20081;-37
2023/12/26 06:13:58;;;;;;;0.50;0.30;;;;;;;12.12;69.62;99745.22;5073513;28;20036;-37
2023/12/26 06:16:24;;;;;;;0.20;0.20;;;;;;;12.31;69.35;99743.75;5079416;28;20031;-36
2023/12/26 06:18:49;;;;;;;0.25;0.20;;;;;;;12.17;69.37;99743.06;5076781;28;20100;-37
2023/12/26 06:21:14;;;;;;;0.10;0.10;;;;;;;12.03;69.71;99748.59;5077701;28;20081;-37
2023/12/26 06:23:40;;;;;;;0.10;0.10;;;;;;;11.96;70.34;99763.19;5075645;28;20039;-37
2023/12/26 06:26:05;;;;;;;0.30;0.20;;;;;;;12.05;69.93;99754.56;5073598;28;20506;-37
2023/12/26 06:28:30;;;;;;;0.32;0.10;;;;;;;11.94;70.26;99746.66;5069776;28;20040;-37
2023/12/26 06:30:56;;;;;;;0.73;0.30;;;;;;;12.05;69.51;99754.56;5079674;28;20032;-37
2023/12/26 06:33:21;;;;;;;2.40;0.22;;;;;;;12.01;69.73;99767.19;5074525;28;20030;-36
2023/12/26 06:35:46;;;;;;;0.35;0.20;;;;;;;12.09;69.34;99777.13;5073668;28;20036;-37
2023/12/26 06:38:12;;;;;;;0.10;0.10;;;;;;;12.01;69.75;99790.91;5079091;28;20016;-37
2023/12/26 06:40:40;;;;;;;0.17;0.10;;;;;;;11.90;69.74;99791.72;5073715;28;20059;-37
2023/12/26 06:43:07;;;;;;;0.60;0.40;;;;;;;11.55;69.95;99789.19;5078159;28;20027;-37
2023/12/26 06:45:32;;;;;;;0.40;0.40;;;;;;;11.75;70.18;99800.81;5072776;28;20035;-37
2023/12/26 06:47:58;;;;;;;0.25;0.17;;;;;;;11.68;69.87;99797.00;5074799;28;20050;-37
2023/12/26 06:50:23;;;;;;;0.22;0.20;;;;;;;11.86;69.54;99819.28;5072389;28;20039;-37
2023/12/26 06:52:49;;;;;;;0.25;0.17;;;;;;;12.11;68.79;99812.13;5073596;28;20048;-37
2023/12/26 06:55:14;;;;;;;0.63;0.30;;;;;;;11.92;69.42;99825.88;5073708;28;20031;-37
2023/12/26 06:57:39;;;;;;;0.20;0.20;;;;;;;11.94;69.48;99823.09;5072237;28;20039;-37
2023/12/26 07:00:05;;;;;;;0.15;0.10;;;;;;;11.82;69.03;99833.66;5074629;28;20635;-37
2023/12/26 07:02:32;;;;;;;0.25;0.10;;;;;;;12.04;68.46;99821.44;5073268;28;20031;-37
2023/12/26 07:04:57;;;;;;;0.47;0.20;;;;;;;12.07;68.47;99836.22;5074101;28;20068;-37
2023/12/26 07:07:23;;;;;;;0.25;0.10;;;;;;;12.08;68.78;99833.44;5070338;28;20056;-37
2023/12/26 07:09:48;;;;;;;0.95;0.20;;;;;;;11.83;69.21;99839.75;5073450;28;20111;-37
2023/12/26 07:12:13;;;;;;;1.50;0.30;;;;;;;12.10;68.60;99820.97;5073621;28;20098;-37
2023/12/26 07:14:39;;;;;;;0.20;0.20;;;;;;;12.01;68.39;99821.72;5077407;28;20032;-37
2023/12/26 07:17:04;;;;;;;0.20;0.20;;;;;;;11.97;68.49;99830.78;5075793;28;20060;-37
2023/12/26 07:19:30;;;;;;;0.77;0.40;;;;;;;12.08;68.41;99844.00;5072073;28;20024;-36
2023/12/26 07:21:55;;;;;;;1.95;0.70;;;;;;;11.71;68.53;99858.19;5074230;28;20043;-36
2023/12/26 07:24:20;;;;;;;0.40;0.20;;;;;;;11.89;68.43;99861.22;5073408;28;20028;-36
2023/12/26 07:26:46;;;;;;;0.22;0.20;;;;;;;11.79;68.26;99870.78;5074681;28;20040;-37
2023/12/26 07:29:11;;;;;;;0.32;0.20;;;;;;;11.62;68.52;99879.13;5076546;28;20036;-38
2023/12/26 07:31:37;;;;;;;3.08;0.25;;;;;;;11.63;68.95;99881.69;5079615;28;20051;-36
2023/12/26 07:34:04;;;;;;;0.10;0.10;;;;;;;11.86;67.89;99876.44;5078114;28;20063;-37
2023/12/26 07:36:32;;;;;;;0.40;0.20;;;;;;;11.94;67.68;99878.47;5074443;28;20043;-40
2023/12/26 07:38:58;;;;;;;0.40;0.20;;;;;;;11.81;67.76;99889.97;5074572;28;20031;-37
2023/12/26 07:41:23;;;;;;;0.80;0.30;;;;;;;11.92;67.46;99890.94;5083821;28;20036;-35
2023/12/26 07:43:51;;;;;;;0.38;0.20;;;;;;;11.92;67.28;99898.84;5080571;28;20036;-38
2023/12/26 07:46:16;;;;;;;0.30;0.10;;;;;;;11.73;67.66;99902.88;5078066;28;20397;-37
2023/12/26 07:48:42;;;;;;;0.88;0.20;;;;;;;11.89;67.09;99903.38;5085582;28;20486;-38
2023/12/26 07:51:10;;;;;;;0.20;0.20;;;;;;;11.73;67.34;99910.78;5077633;28;20051;-37
2023/12/26 07:53:35;;;;;;;0.40;0.20;;;;;;;11.69;67.64;99912.00;5072270;28;20058;-37
2023/12/26 07:56:01;;;;;;;1.27;0.50;;;;;;;11.74;67.19;99921.22;5078216;28;20027;-37
2023/12/26 07:58:26;;;;;;;1.00;0.30;;;;;;;11.65;67.90;99931.63;5078264;28;20094;-38
2023/12/26 08:00:52;;;;;;;0.32;0.20;;;;;;;11.62;67.52;99926.56;5082701;28;20025;-38
2023/12/26 08:03:17;;;;;;;0.60;0.28;;;;;;;11.77;67.46;99938.59;5079755;28;20059;-38
2023/12/26 08:05:42;;;;;;;1.48;0.45;;;;;;;11.31;68.58;99950.78;5075883;28;20079;-38
2023/12/26 08:08:10;;;;;;;1.48;0.85;;;;;;;11.56;67.02;99947.19;5080211;28;20036;-38
2023/12/26 08:10:35;;;;;;;0.85;0.30;;;;;;;11.78;66.36;99953.44;5078131;28;20504;-38
2023/12/26 08:13:00;;;;;;;0.35;0.25;;;;;;;11.66;66.19;99949.94;5075525;28;20530;-38
2023/12/26 08:15:26;;;;;;;0.57;0.30;;;;;;;11.78;65.85;99974.53;5084725;28;20036;-38
2023/12/26 08:17:51;;;;;;;0.55;0.30;;;;;;;11.42;65.65;99966.63;5082468;28;20031;-38
2023/12/26 08:20:17;;;;;;;2.53;0.50;;;;;;;11.49;66.04;99982.81;5080034;28;20033;-38
2023/12/26 08:22:42;;;;;;;3.00;1.00;;;;;;;11.81;64.91;99974.31;5077258;28;20115;-38
2023/12/26 08:25:09;;;;;;;1.65;0.63;;;;;;;11.64;65.00;99972.97;5078469;28;20024;-38
2023/12/26 08:27:34;;;;;;;0.45;0.25;;;;;;;11.82;64.52;99976.00;5075433;28;20588;-38
2023/12/26 08:30:00;;;;;;;0.85;0.40;;;;;;;11.89;64.18;99992.19;5078439;28;20035;-38
2023/12/26 08:32:25;;;;;;;0.38;0.30;;;;;;;11.73;64.70;100009.16;5076211;28;20044;-38
2023/12/26 08:34:50;;;;;;;1.48;0.30;;;;;;;11.42;64.90;100010.56;5077297;28;20119;-38
2023/12/26 08:37:16;;;;;;;1.08;0.20;;;;;;;11.79;64.21;100021.03;5076908;28;20064;-38
2023/12/26 08:39:41;;;;;;;0.68;0.30;;;;;;;11.61;63.22;100019.75;5077801;28;20494;-38
2023/12/26 08:42:07;;;;;;;3.78;0.47;;;;;;;11.81;63.55;100019.13;5082115;28;20444;-38
2023/12/26 08:44:32;;;;;;;0.85;0.47;;;;;;;11.69;63.53;100017.41;5078578;28;20024;-38
2023/12/26 08:47:05;;;;;;;1.60;0.28;;;;;;;11.87;63.24;100023.09;5080519;28;20032;-38
2023/12/26 08:49:30;;;;;;;;;;;;;;;11.84;62.44;100026.81;5082786;28;20024;-37
2023/12/26 08:51:55;;;;;;;4.38;1.95;;;;;;;11.36;62.69;100047.91;5079048;28;19938;-38
2023/12/26 08:54:21;;;;;;;2.83;1.25;;;;;;;11.70;62.09;100040.16;5078131;28;20440;-37
2023/12/26 08:56:46;;;;;;;2.15;0.75;;;;;;;11.81;61.75;100040.22;5074361;28;20028;-38
2023/12/26 08:59:12;;;;;;;3.00;0.63;;;;;;;11.83;61.48;100045.34;5079723;28;20453;-40
2023/12/26 09:01:37;;;;;;;6.50;0.73;;;;;;;11.41;62.24;100040.50;5084107;28;20036;-37
2023/12/26 09:04:03;;;;;;;2.85;0.50;;;;;;;11.85;61.71;100044.31;5078910;28;20483;-37
2023/12/26 09:06:29;;;;;;;1.10;0.50;;;;;;;11.81;61.98;100069.22;5078293;28;20048;-36
2023/12/26 09:08:54;;;;;;;1.73;0.50;;;;;;;12.02;61.73;100061.53;5082844;28;20060;-37
2023/12/26 09:11:20;;;;;;;3.88;0.55;;;;;;;11.84;61.20;100071.63;5078119;28;20082;-37
2023/12/26 09:13:45;;;;;;;1.52;0.30;;;;;;;11.71;61.81;100079.56;5076531;28;20122;-39
2023/12/26 09:16:11;;;;;;;1.90;0.80;;;;;;;11.74;61.37;100079.34;5082477;28;20405;-36
2023/12/26 09:18:36;;;;;;;3.30;0.57;;;;;;;11.77;60.86;100109.91;5081250;28;20084;-36
2023/12/26 09:21:02;;;;;;;11.75;0.68;;;;;;;11.64;61.01;100085.41;5079957;28;20042;-37
2023/12/26 09:23:28;;;;;;;2.25;0.43;;;;;;;11.79;60.35;100091.38;5080740;28;20478;-40
2023/12/26 09:25:53;;;;;;;3.25;0.63;;;;;;;11.81;60.57;100092.94;5078427;28;20038;-37
2023/12/26 09:28:19;;;;;;;6.30;1.42;;;;;;;11.84;60.55;100100.63;5084024;28;20397;-38
2023/12/26 09:30:44;;;;;;;2.75;0.40;;;;;;;12.08;60.36;100094.50;5113911;22;20048;-36
2023/12/26 09:33:10;;;;;;;1.67;0.82;;;;;;;11.94;60.61;100123.66;5060864;28;20074;-34
2023/12/26 09:35:35;;;;;;;3.67;0.80;;;;;;;11.88;60.34;100107.31;5061151;28;20516;-35
2023/12/26 09:38:01;;;;;;;2.30;0.82;;;;;;;12.19;60.17;100115.63;5065746;28;20063;-35
2023/12/26 09:40:26;;;;;;;1.92;0.70;;;;;;;12.13;60.52;100116.09;5052551;28;20017;-36
2023/12/26 09:43:01;;;;;;;4.40;0.80;;;;;;;12.10;60.31;100118.97;5040286;28;20440;-36
2023/12/26 09:45:27;;;;;;;2.10;0.90;;;;;;;11.98;60.16;100111.94;5041750;28;20029;-36
2023/12/26 09:47:53;;;;;;;5.93;1.00;;;;;;;11.96;60.07;100113.84;5044959;28;20082;-36
2023/12/26 09:50:19;;;;;;;1.58;0.65;;;;;;;12.06;59.64;100125.41;5040181;28;20016;-37
2023/12/26 09:52:52;;;;;;;2.35;0.60;;;;;;;11.89;59.74;100122.19;5039988;28;20392;-37
2023/12/26 09:55:18;;;;;;;1.33;0.68;;;;;;;11.93;60.07;100135.16;5044670;28;20075;-36
2023/12/26 09:57:45;;;;;;;4.28;0.60;;;;;;;11.79;60.28;100138.81;5044891;28;20558;-36
2023/12/26 10:00:11;;;;;;;2.28;1.00;;;;;;;11.54;60.05;100138.78;5049440;28;20029;-36
2023/12/26 10:02:36;;;;;;;5.03;0.95;;;;;;;12.03;59.69;100133.53;5044891;28;20064;-36
2023/12/26 10:05:01;;;;;;;0.80;0.55;;;;;;;11.84;59.89;100157.75;5046011;28;20028;-37
2023/12/26 10:07:27;;;;;;;1.70;0.68;;;;;;;11.31;60.35;100155.34;5044069;28;20041;-36
2023/12/26 10:09:54;;;;;;;7.90;1.55;;;;;;;11.68;59.52;100158.03;5045180;28;20061;-35
2023/12/26 10:12:19;;;;;;;5.30;0.85;;;;;;;11.76;58.21;100144.31;5044916;28;20029;-35
2023/12/26 10:14:44;;;;;;;1.88;0.73;;;;;;;12.07;58.11;100152.63;5042382;28;20044;-35
2023/12/26 10:17:12;;;;;;;1.25;0.45;;;;;;;11.71;58.34;100165.72;5044738;28;20021;-35
2023/12/26 10:19:38;;;;;;;2.22;0.82;;;;;;;11.97;57.85;100173.53;5046200;28;20055;-35
2023/12/26 10:22:03;;;;;;;4.72;1.38;;;;;;;11.97;58.27;100168.25;5051222;28;20048;-35
2023/12/26 10:24:29;;;;;;;8.05;1.75;;;;;;;12.12;57.21;100175.09;5043730;28;20106;-35
2023/12/26 10:26:55;;;;;;;3.60;0.80;;;;;;;12.19;57.32;100178.94;5045283;28;20111;-36
2023/12/26 10:29:20;;;;;;;15.55;3.22;;;;;;;12.35;57.27;100186.56;5044043;28;20623;-36
2023/12/26 10:31:46;;;;;;;13.52;4.97;;;;;;;12.48;57.11;100189.13;5045676;28;20045;-36
2023/12/26 10:34:14;;;;;;;3.33;0.80;;;;;;;12.24;56.98;100180.41;5045426;28;20033;-36
2023/12/26 10:36:50;;;;;;;3.95;0.85;;;;;;;12.38;56.97;100180.22;5047124;28;20062;-35
2023/12/26 10:39:17;;;;;;;6.65;1.13;;;;;;;12.30;57.12;100185.25;5043406;28;20044;-35
2023/12/26 10:41:44;;;;;;;2.60;0.52;;;;;;;12.12;57.15;100197.97;5044860;28;20083;-35
2023/12/26 10:44:10;;;;;;;5.57;1.55;;;;;;;12.32;56.41;100205.25;5047981;28;20041;-35
2023/12/26 10:46:36;;;;;;;4.70;1.13;;;;;;;12.10;56.63;100250.81;5041098;28;20392;-35
2023/12/26 10:49:06;;;;;;;2.95;0.80;;;;;;;12.20;56.93;100198.25;5040391;28;20658;-35
2023/12/26 10:51:32;;;;;;;5.78;0.90;;;;;;;12.07;56.68;100205.38;5041889;28;20183;-35
2023/12/26 10:54:09;;;;;;;4.88;0.77;;;;;;;12.36;56.26;100216.41;5042335;28;20593;-35
2023/12/26 10:56:36;;;;;;;4.75;0.77;;;;;;;12.29;55.94;100252.13;5020784;28;20117;-35
2023/12/26 10:59:03;;;;;;;5.90;0.73;;;;;;;12.33;56.02;100216.66;5041730;28;20029;-35
2023/12/26 11:01:28;;;;;;;3.13;0.70;;;;;;;12.23;55.83;100205.94;5041188;28;20028;-35
2023/12/26 11:03:54;;;;;;;3.15;1.30;;;;;;;12.14;55.81;100227.69;5043447;28;20025;-35
2023/12/26 11:06:21;;;;;;;5.55;1.25;;;;;;;12.33;55.81;100230.69;5039390;28;21445;-35
2023/12/26 11:08:47;;;;;;;5.20;1.20;;;;;;;11.90;56.63;100268.03;5034996;28;20087;-35
2023/12/26 11:11:38;;;;;;;5.00;0.80;;;;;;;12.10;56.17;100242.91;5036301;28;20423;-35
2023/12/26 11:14:05;;;;;;;3.60;0.98;;;;;;;12.12;55.93;100248.94;5037398;28;21212;-35
2023/12/26 11:16:31;;;;;;;6.38;2.35;;;;;;;12.29;55.84;100233.66;5039563;28;20587;-35
2023/12/26 11:18:57;;;;;;;1.55;0.57;;;;;;;12.06;56.00;100267.81;5040441;28;20021;-35
2023/12/26 11:21:23;;;;;;;5.47;0.95;;;;;;;11.79;56.14;100263.53;5036058;28;20056;-36
2023/12/26 11:23:49;;;;;;;2.17;0.50;;;;;;;11.88;56.25;100249.69;5039479;28;20099;-35
2023/12/26 11:26:14;;;;;;;5.90;0.70;;;;;;;11.88;55.73;100270.78;5033362;28;20037;-35